• Join FlightAware (Why Join?)
  • Login
  • US Flag 
01:14AM EDT


 

Airport Tracker/Info


-or-


 

Live Flight TrackerFlight Track Log ✈ N3690D ✈ 05-Jun-2013 ✈ KALB - KPLR

Flight Track Log - Related Links

Times and Time Zones

All times are in EDT time to prevent confusion due to time zone crossing. See the N3690D flight status page for this flight to view local times or setup timezone preferences in your user account.

Time Position Orientation Groundspeed Altitude Reporting Facility
EDT Latitude Longitude Course Direction KTS MPH feet Rate Location/Type
08:19AM 42.7653 -73.8061 318° Northwest 116 133 800  Level Boston Center
08:20AM 42.7817 -73.8261 318° Northwest 130 150 1,500 960 Climbing Boston Center
08:21AM 42.7747 -73.8742 259° West 133 153 2,400 900 Climbing Boston Center
08:22AM 42.7639 -73.9247 254° West 152 175 3,400 1,020 Climbing Boston Center
08:23AM 42.7403 -73.9722 236° Southwest 142 163 4,500 1,020 Climbing Boston Center
08:24AM 42.7189 -74.0142 235° Southwest 139 160 5,500 900 Climbing Boston Center
08:25AM 42.6953 -74.0531 230° Southwest 148 170 6,300 900 Climbing Boston Center
08:26AM 42.6719 -74.0919 231° Southwest 148 170 7,200 960 Climbing Boston Center
08:27AM 42.6461 -74.1394 234° Southwest 150 173 8,200 960 Climbing Boston Center
08:27AM 42.6333 -74.1644 235° Southwest 146 168 8,700 960 Climbing Boston Center
08:28AM 42.6225 -74.1783 223° Southwest 142 163 9,200 900 Climbing Boston Center
08:28AM 42.6119 -74.2006 237° Southwest 146 168 9,600 540 Climbing Boston Center
08:29AM 42.5839 -74.2478 231° Southwest 151 174 10,100 180 Climbing Boston Center
08:30AM 42.5561 -74.2975 233° Southwest 175 201 10,100  Level Boston Center
08:31AM 42.5153 -74.3667 231° Southwest 193 222 10,100  Level Boston Center
08:32AM 42.4808 -74.4306 234° Southwest 198 228 10,100  Level Boston Center
08:33AM 42.4508 -74.4831 232° Southwest 198 228 10,100  Level Boston Center
08:34AM 42.4142 -74.5436 231° Southwest 198 228 10,100  Level Boston Center
08:35AM 42.3861 -74.5933 233° Southwest 198 228 10,100 60 Level Boston Center
08:36AM 42.3517 -74.6567 234° Southwest 198 228 10,300 360 Climbing Boston Center
08:37AM 42.3278 -74.6981 232° Southwest 185 213 10,900 540 Climbing Boston Center
08:38AM 42.2997 -74.7558 237° Southwest 180 207 11,400 480 Climbing Boston Center
08:39AM 42.2736 -74.8000 231° Southwest 170 196 11,900 300 Climbing Boston Center
08:40AM 42.2456 -74.8494 233° Southwest 170 196 12,100 60 Climbing Boston Center
08:42AM 42.1872 -74.9439 230° Southwest 170 196 12,100  Level New York Center
08:43AM 42.1517 -75.0086 233° Southwest 190 219 12,100  Level New York Center
08:44AM 42.1186 -75.0597 229° Southwest 190 219 12,100  Level New York Center
08:45AM 42.0856 -75.1133 230° Southwest 190 219 12,100  Level New York Center
08:46AM 42.0503 -75.1669 228° Southwest 190 219 12,100  Level New York Center
08:47AM 42.0214 -75.2125 230° Southwest 190 219 12,100  Level New York Center
08:48AM 41.9861 -75.2658 228° Southwest 196 226 12,100  Level New York Center
08:49AM 41.9483 -75.3247 229° Southwest 201 231 12,100  Level New York Center
08:50AM 41.9131 -75.3781 228° Southwest 201 231 12,100  Level New York Center
08:51AM 41.8800 -75.4286 229° Southwest 201 231 12,100 300 Level New York Center
08:52AM 41.8531 -75.4742 232° Southwest 196 226 12,700 480 Climbing New York Center
08:53AM 41.8222 -75.5192 227° Southwest 185 213 13,100 180 Climbing New York Center
08:54AM 41.7867 -75.5750 230° Southwest 180 207 13,100 180 Level New York Center
08:55AM 41.7556 -75.6228 229° Southwest 180 207 13,500 420 Climbing New York Center
08:56AM 41.7308 -75.6628 230° Southwest 174 200 14,000 300 Climbing New York Center
08:57AM 41.6975 -75.7158 230° Southwest 174 200 14,100  Climbing New York Center
08:58AM 41.6642 -75.7661 228° Southwest 180 207 14,100  Level New York Center
08:59AM 41.6331 -75.8111 227° Southwest 185 213 14,100  Level New York Center
09:00AM 41.5972 -75.8694 231° Southwest 185 213 14,100  Level New York Center
09:01AM 41.5597 -75.9192 225° Southwest 185 213 14,100  Level New York Center
09:02AM 41.5283 -75.9722 232° Southwest 185 213 14,100  Level New York Center
09:03AM 41.4969 -76.0222 230° Southwest 185 213 14,100  Level New York Center
09:04AM 41.4636 -76.0722 228° Southwest 185 213 14,100  Level New York Center
09:05AM 41.4256 -76.1303 229° Southwest 191 220 14,100 -60 Level New York Center
09:06AM 41.3897 -76.1828 228° Southwest 191 220 14,000  Descending New York Center
09:07AM 41.3586 -76.2272 227° Southwest 191 220 14,100  Climbing New York Center
09:08AM 41.3250 -76.2797 230° Southwest 191 220 14,100  Level New York Center
09:09AM 41.2867 -76.3372 228° Southwest 191 220 14,100  Level New York Center
09:10AM 41.2531 -76.3897 230° Southwest 197 227 14,100  Level New York Center
09:11AM 41.2172 -76.4419 228° Southwest 197 227 14,100  Level New York Center
09:12AM 41.1858 -76.4889 228° Southwest 197 227 14,100  Level New York Center
09:13AM 41.1519 -76.5411 229° Southwest 197 227 14,100  Level New York Center
09:14AM 41.1139 -76.5958 227° Southwest 197 227 14,100  Level New York Center
09:15AM 41.0778 -76.6506 229° Southwest 197 227 14,100  Level New York Center
09:16AM 41.0464 -76.7000 230° Southwest 202 232 14,100  Level New York Center
09:17AM 41.0122 -76.7550 231° Southwest 202 232 14,100  Level New York Center
09:18AM 40.9764 -76.8067 227° Southwest 202 232 14,100  Level New York Center
09:19AM 40.9403 -76.8583 227° Southwest 202 232 14,100  Level New York Center
09:20AM 40.9042 -76.9103 227° Southwest 202 232 14,100  Level New York Center
09:21AM 40.8681 -76.9644 229° Southwest 202 232 14,100  Level New York Center
09:22AM 40.8319 -77.0189 229° Southwest 202 232 14,100  Level New York Center
09:23AM 40.7958 -77.0706 227° Southwest 202 232 14,100  Level New York Center
09:24AM 40.7617 -77.1247 230° Southwest 202 232 14,100  Level New York Center
09:25AM 40.7253 -77.1789 228° Southwest 202 232 14,100  Level New York Center
09:26AM 40.6892 -77.2303 227° Southwest 202 232 14,100  Level New York Center
09:27AM 40.6531 -77.2844 229° Southwest 202 232 14,100  Level New York Center
09:28AM 40.6167 -77.3356 227° Southwest 202 232 14,100  Level New York Center
09:30AM 40.5347 -77.4494 227° Southwest 191 220 14,100  Level Cleveland Center
09:31AM 40.4967 -77.5031 227° Southwest 197 227 14,100  Level Cleveland Center
09:32AM 40.4628 -77.5564 230° Southwest 197 227 14,100  Level Cleveland Center
09:33AM 40.4267 -77.6128 230° Southwest 197 227 14,100  Level Cleveland Center
09:34AM 40.3925 -77.6606 227° Southwest 197 227 14,100 -60 Level Cleveland Center
09:35AM 40.3561 -77.7114 227° Southwest 197 227 14,000  Descending Cleveland Center
09:36AM 40.3200 -77.7647 228° Southwest 197 227 14,100  Climbing Cleveland Center
09:37AM 40.2858 -77.8122 227° Southwest 197 227 14,000 -60 Descending Cleveland Center
09:38AM 40.2494 -77.8656 228° Southwest 197 227 14,000  Level Cleveland Center
09:39AM 40.2133 -77.9186 228° Southwest 197 227 14,000  Level Cleveland Center
09:40AM 40.1789 -77.9717 230° Southwest 197 227 14,100  Climbing Cleveland Center
09:41AM 40.1428 -78.0247 228° Southwest 197 227 14,000 -60 Descending Cleveland Center
09:42AM 40.1064 -78.0750 227° Southwest 197 227 14,000  Level Cleveland Center
09:43AM 40.0700 -78.1278 228° Southwest 197 227 14,000  Level Cleveland Center
09:44AM 40.0333 -78.1781 226° Southwest 197 227 14,000  Level Cleveland Center
09:45AM 39.9992 -78.2306 230° Southwest 197 227 14,000  Level Cleveland Center
09:48AM 39.9197 -78.3536 230° Southwest 205 236 14,000 -60 Level Washington Center
09:49AM 39.8747 -78.4006 219° Southwest 195 224 13,900 -60 Descending Washington Center
09:50AM 39.8381 -78.4503 226° Southwest 195 224 13,900  Level Washington Center
09:51AM 39.8017 -78.5003 227° Southwest 195 224 13,900  Level Washington Center
09:52AM 39.7669 -78.5528 229° Southwest 195 224 13,900  Level Washington Center
09:53AM 39.7303 -78.6028 226° Southwest 195 224 14,000  Climbing Washington Center
09:54AM 39.6936 -78.6525 226° Southwest 195 224 14,000  Level Washington Center
09:55AM 39.6589 -78.7047 229° Southwest 195 224 14,000  Level Washington Center
09:56AM 39.6222 -78.7569 228° Southwest 190 219 14,000 -60 Level Washington Center
09:57AM 39.5853 -78.8094 228° Southwest 190 219 13,900 -60 Descending Washington Center
09:58AM 39.5486 -78.8589 226° Southwest 190 219 13,900  Level Washington Center
09:59AM 39.5117 -78.9083 226° Southwest 190 219 13,900  Level Washington Center
10:00AM 39.4750 -78.9603 228° Southwest 190 219 13,900  Level Washington Center
10:01AM 39.4381 -79.0125 228° Southwest 190 219 13,900  Level Washington Center
10:02AM 39.4033 -79.0617 228° Southwest 190 219 13,900  Level Washington Center
10:03AM 39.3644 -79.1108 224° Southwest 190 219 13,900  Level Washington Center
10:04AM 39.3272 -79.1628 227° Southwest 190 219 13,900  Level Washington Center
10:05AM 39.2925 -79.2147 229° Southwest 190 219 13,900  Level Washington Center
10:06AM 39.2617 -79.2642 231° Southwest 190 219 13,900  Level Washington Center
10:07AM 39.2247 -79.3133 226° Southwest 190 219 13,900  Level Washington Center
10:08AM 39.1878 -79.3675 229° Southwest 201 231 13,900  Level Washington Center
10:09AM 39.1506 -79.4192 227° Southwest 201 231 13,900  Level Washington Center
10:10AM 39.1136 -79.4681 226° Southwest 201 231 13,900  Level Washington Center
10:11AM 39.0764 -79.5194 227° Southwest 201 231 13,900  Level Washington Center
10:12AM 39.0331 -79.5706 223° Southwest 201 231 13,900  Level Washington Center
10:13AM 38.9936 -79.6300 230° Southwest 208 239 13,900  Level Washington Center
10:14AM 38.9608 -79.6736 226° Southwest 208 239 13,900  Level Washington Center
10:15AM 38.9236 -79.7250 227° Southwest 208 239 13,900  Level Washington Center
10:16AM 38.8867 -79.7733 226° Southwest 208 239 13,900  Level Washington Center
10:17AM 38.8494 -79.8247 227° Southwest 208 239 13,900  Level Washington Center
10:18AM 38.8078 -79.8808 226° Southwest 208 239 13,900  Level Washington Center
10:19AM 38.7783 -79.9139 221° Southwest 194 223 13,900  Level Indianapolis Center
10:20AM 38.7408 -79.9653 227° Southwest 195 224 13,900  Level Indianapolis Center
10:21AM 38.7022 -80.0167 226° Southwest 198 228 13,900  Level Indianapolis Center
10:22AM 38.6644 -80.0667 226° Southwest 196 226 13,900  Level Indianapolis Center
10:23AM 38.6189 -80.1269 226° Southwest 196 226 13,900 -60 Level Indianapolis Center
10:24AM 38.5869 -80.1703 227° Southwest 193 222 13,800 -60 Descending Indianapolis Center
10:25AM 38.5422 -80.2278 225° Southwest 196 226 13,800  Level Indianapolis Center
10:26AM 38.5050 -80.2825 229° Southwest 208 239 13,900  Climbing Washington Center
10:27AM 38.4672 -80.3358 228° Southwest 208 239 13,900  Level Washington Center
10:28AM 38.4300 -80.3811 224° Southwest 208 239 13,900  Level Washington Center
10:29AM 38.3969 -80.4294 229° Southwest 208 239 13,900 -60 Level Washington Center
10:30AM 38.3486 -80.4886 224° Southwest 195 224 13,800 -60 Descending Indianapolis Center
10:31AM 38.3078 -80.5383 224° Southwest 199 229 13,800  Level Indianapolis Center
10:32AM 38.2706 -80.5886 227° Southwest 197 227 13,800  Level Indianapolis Center
10:33AM 38.2328 -80.6383 226° Southwest 195 224 13,800  Level Indianapolis Center
10:34AM 38.1958 -80.6872 226° Southwest 193 222 13,800  Level Indianapolis Center
10:35AM 38.1578 -80.7378 226° Southwest 195 224 13,800  Level Indianapolis Center
10:36AM 38.1200 -80.7878 226° Southwest 196 226 13,800  Level Indianapolis Center
10:37AM 38.0739 -80.8481 226° Southwest 198 228 13,800  Level Indianapolis Center
10:38AM 38.0350 -80.8986 226° Southwest 199 229 13,800  Level Indianapolis Center
10:39AM 37.9967 -80.9478 225° Southwest 197 227 13,800  Level Indianapolis Center
10:40AM 37.9581 -80.9981 226° Southwest 198 228 13,800  Level Indianapolis Center
10:41AM 37.9200 -81.0464 225° Southwest 195 224 13,800  Level Indianapolis Center
10:42AM 37.8822 -81.0967 226° Southwest 197 227 13,800  Level Indianapolis Center
10:43AM 37.8431 -81.1467 225° Southwest 199 229 13,800  Level Indianapolis Center
10:44AM 37.7961 -81.2056 225° Southwest 198 228 13,900  Climbing Indianapolis Center
10:45AM 37.7606 -81.2539 227° Southwest 195 224 13,900  Level Indianapolis Center
10:46AM 37.7225 -81.3008 224° Southwest 197 227 13,900  Level Indianapolis Center
10:47AM 37.6781 -81.3581 226° Southwest 197 227 13,900  Level Indianapolis Center
10:49AM 37.6408 -81.4058 225° Southwest 196 226 13,900  Level Indianapolis Center
10:50AM 37.6042 -81.4531 226° Southwest 195 224 13,900  Level Indianapolis Center
10:51AM 37.5617 -81.5064 225° Southwest 198 228 13,900  Level Indianapolis Center
10:52AM 37.5247 -81.5567 227° Southwest 195 224 13,900  Level Indianapolis Center
10:53AM 37.4861 -81.6058 225° Southwest 197 227 13,900  Level Indianapolis Center
10:54AM 37.4469 -81.6539 224° Southwest 198 228 13,900  Level Indianapolis Center
10:55AM 37.4086 -81.7036 226° Southwest 197 227 13,900  Level Indianapolis Center
10:56AM 37.3631 -81.7617 225° Southwest 200 230 13,900  Level Indianapolis Center
10:57AM 37.3242 -81.8108 225° Southwest 198 228 13,900  Level Indianapolis Center
10:58AM 37.2864 -81.8589 225° Southwest 195 224 13,900  Level Indianapolis Center
10:59AM 37.2467 -81.9078 224° Southwest 197 227 13,900  Level Indianapolis Center
11:00AM 37.2083 -81.9578 226° Southwest 197 227 13,900  Level Indianapolis Center
11:01AM 37.1689 -82.0075 225° Southwest 200 230 13,900  Level Indianapolis Center
11:02AM 37.1306 -82.0544 224° Southwest 195 224 13,900  Level Indianapolis Center
11:03AM 37.0858 -82.1114 225° Southwest 195 224 13,900  Level Indianapolis Center
11:04AM 37.0467 -82.1589 224° Southwest 195 224 13,900 -60 Level Indianapolis Center
11:05AM 37.0092 -82.2078 226° Southwest 195 224 13,800 -60 Descending Indianapolis Center
11:06AM 36.9700 -82.2547 224° Southwest 194 223 13,800  Level Indianapolis Center
11:07AM 36.9311 -82.3036 225° Southwest 196 226 13,800  Level Indianapolis Center
11:08AM 36.8931 -82.3503 224° Southwest 193 222 13,800  Level Indianapolis Center
11:09AM 36.8542 -82.3997 226° Southwest 197 227 13,800  Level Indianapolis Center
11:10AM 36.8089 -82.4558 225° Southwest 197 227 13,800  Level Indianapolis Center
11:11AM 36.7697 -82.5050 225° Southwest 198 228 13,800  Level Indianapolis Center
11:12AM 36.7306 -82.5517 224° Southwest 194 223 13,800  Level Indianapolis Center
11:13AM 36.6925 -82.5997 225° Southwest 193 222 13,800  Level Indianapolis Center
11:14AM 36.6536 -82.6469 224° Southwest 194 223 13,800  Level Indianapolis Center
11:15AM 36.6161 -82.6950 226° Southwest 192 221 13,800  Level Indianapolis Center
11:16AM 36.5933 -82.7200 221° Southwest 194 223 13,800  Level Atlanta Center
11:17AM 36.5542 -82.7672 224° Southwest 194 223 13,800  Level Atlanta Center
11:18AM 36.5172 -82.8142 226° Southwest 194 223 13,800  Level Atlanta Center
11:19AM 36.4803 -82.8614 226° Southwest 199 229 13,900  Climbing Atlanta Center
11:20AM 36.4389 -82.9083 222° Southwest 199 229 13,900  Level Atlanta Center
11:21AM 36.4039 -82.9528 226° Southwest 199 229 13,900  Level Atlanta Center
11:22AM 36.3647 -82.9997 224° Southwest 199 229 13,900  Level Atlanta Center
11:23AM 36.3275 -83.0492 227° Southwest 199 229 13,900  Level Atlanta Center
11:24AM 36.2883 -83.0961 224° Southwest 199 229 13,900  Level Atlanta Center
11:25AM 36.2489 -83.1428 224° Southwest 199 229 13,900  Level Atlanta Center
11:26AM 36.2097 -83.1894 224° Southwest 199 229 13,900  Level Atlanta Center
11:27AM 36.1725 -83.2361 225° Southwest 199 229 13,900  Level Atlanta Center
11:28AM 36.1372 -83.2778 224° Southwest 194 223 13,900  Level Atlanta Center
11:29AM 36.1000 -83.3244 225° Southwest 194 223 13,900  Level Atlanta Center
11:30AM 36.0586 -83.3736 224° Southwest 194 223 13,900  Level Atlanta Center
11:31AM 36.0211 -83.4175 223° Southwest 199 229 13,900  Level Atlanta Center
11:32AM 35.9778 -83.4692 224° Southwest 199 229 13,900  Level Atlanta Center
11:33AM 35.9425 -83.5181 228° Southwest 199 229 13,900  Level Atlanta Center
11:34AM 35.9008 -83.5644 222° Southwest 199 229 13,900  Level Atlanta Center
11:35AM 35.8614 -83.6108 224° Southwest 199 229 13,900  Level Atlanta Center
11:36AM 35.8242 -83.6572 225° Southwest 199 229 14,000  Climbing Atlanta Center
11:37AM 35.7844 -83.7008 222° Southwest 199 229 14,000  Level Atlanta Center
11:38AM 35.7514 -83.7444 227° Southwest 199 229 14,000  Level Atlanta Center
11:39AM 35.7117 -83.7881 222° Southwest 199 229 14,000  Level Atlanta Center
11:40AM 35.6722 -83.8342 224° Southwest 199 229 14,000  Level Atlanta Center
11:41AM 35.6347 -83.8828 227° Southwest 199 229 14,000  Level Atlanta Center
11:42AM 35.5931 -83.9289 222° Southwest 199 229 14,000  Level Atlanta Center
11:43AM 35.5556 -83.9750 225° Southwest 199 229 14,000  Level Atlanta Center
11:44AM 35.5158 -84.0208 223° Southwest 199 229 14,000  Level Atlanta Center
11:45AM 35.4764 -84.0667 223° Southwest 199 229 14,000  Level Atlanta Center
11:46AM 35.4386 -84.1153 226° Southwest 199 229 14,000  Level Atlanta Center
11:47AM 35.3989 -84.1586 222° Southwest 199 229 14,000  Level Atlanta Center
11:48AM 35.3614 -84.2042 225° Southwest 199 229 14,000  Level Atlanta Center
11:49AM 35.3217 -84.2500 223° Southwest 199 229 14,000  Level Atlanta Center
11:50AM 35.2819 -84.2958 223° Southwest 199 229 14,000  Level Atlanta Center
11:51AM 35.2422 -84.3414 223° Southwest 199 229 14,000  Level Atlanta Center
11:52AM 35.2044 -84.3869 225° Southwest 199 229 14,000  Level Atlanta Center
11:53AM 35.1669 -84.4325 225° Southwest 199 229 14,000  Level Atlanta Center
11:54AM 35.1269 -84.4781 223° Southwest 199 229 14,000  Level Atlanta Center
11:55AM 35.0894 -84.5261 226° Southwest 199 229 14,000  Level Atlanta Center
11:56AM 35.0536 -84.5742 228° Southwest 199 229 14,000  Level Atlanta Center
11:57AM 35.0181 -84.6219 228° Southwest 194 223 14,000  Level Atlanta Center
11:58AM 34.9803 -84.6675 225° Southwest 194 223 14,000  Level Atlanta Center
11:59AM 34.9403 -84.7103 221° Southwest 194 223 14,000 -120 Level Atlanta Center
12:00PM 34.9003 -84.7556 223° Southwest 199 229 13,800 -300 Descending Atlanta Center
12:01PM 34.8606 -84.8058 226° Southwest 199 229 13,500 -300 Descending Atlanta Center
12:02PM 34.8183 -84.8508 221° Southwest 199 229 13,200 -300 Descending Atlanta Center
12:03PM 34.7786 -84.8936 221° Southwest 199 229 13,000 -240 Descending Atlanta Center
12:04PM 34.7406 -84.9411 226° Southwest 199 229 12,800 -300 Descending Atlanta Center
12:05PM 34.7006 -84.9836 221° Southwest 199 229 12,500 -240 Descending Atlanta Center
12:06PM 34.6564 -85.0311 222° Southwest 194 223 12,400 -240 Descending Atlanta Center
12:07PM 34.6225 -85.0814 231° Southwest 191 220 12,100 -360 Descending Atlanta Center
12:08PM 34.5764 -85.1236 217° Southwest 203 234 11,700 -240 Descending Atlanta Center
12:09PM 34.5383 -85.1711 226° Southwest 203 234 11,700 -120 Level Atlanta Center
12:10PM 34.5003 -85.2108 221° Southwest 203 234 11,500 -240 Descending Atlanta Center
12:11PM 34.4625 -85.2556 224° Southwest 198 228 11,300 -180 Descending Atlanta Center
12:12PM 34.4225 -85.2928 218° Southwest 193 222 11,200 -240 Descending Atlanta Center
12:13PM 34.3742 -85.3147 201° Southwest 186 214 10,900 -360 Descending Atlanta Center
12:14PM 34.3300 -85.3342 200° South 186 214 10,500 -600 Descending Atlanta Center
12:15PM 34.2839 -85.3611 206° Southwest 186 214 9,700 -840 Descending Atlanta Center
12:16PM 34.2356 -85.3956 211° Southwest 200 230 8,900 -780 Descending Atlanta Center
12:17PM 34.1933 -85.4275 212° Southwest 200 230 8,200 -660 Descending Atlanta Center
12:18PM 34.1472 -85.4594 210° Southwest 200 230 7,600 -660 Descending Atlanta Center
12:19PM 34.0967 -85.4939 209° Southwest 200 230 6,900 -900 Descending Atlanta Center
12:20PM 34.0503 -85.5231 208° Southwest 195 224 5,800 -1,200 Descending Atlanta Center
12:21PM 33.9894 -85.5469 198° South 200 230 4,300 -1,140 Descending Atlanta Center
12:22PM 33.9392 -85.5761 206° Southwest 200 230 3,300 -660 Descending Atlanta Center
12:23PM 33.8906 -85.6103 210° Southwest 200 230 3,000 -300 Descending Atlanta Center